Terminal Aerodrome Forecast
Issued by NWS Charleston, WV

Home | Current Version | Previous Version | Text Only | Print | Product List | Glossary On
Versions: 1 2 3 4 5 6 7 8 9 10 11 12 13 14 15 16 17 18 19 20 21 22 23
000
FTUS41 KRLX 251700
TAFHTS
TAF
KHTS 251730Z 2518/2618 16005KT P6SM BKN150
     FM252300 VRB03KT 6SM -RA BR BKN090
     FM260200 VRB03KT 3SM -RA BR OVC040
     FM260500 VRB03KT 3SM -RASNPL BR OVC030
     FM260700 05004KT 2SM -SNPL BR OVC010
     FM261100 34006KT 2SM -SN BR OVC004
     FM261400 33007KT 3SM BR OVC008=

USA.gov is the U.S. government's official web portal to all federal, state and local government web resources and services.